createdAt,value
2022-09-28T00:03:07.078Z,98022.13
2022-09-28T00:05:34.261Z,98018.06
2022-09-28T00:08:01.371Z,98011.72
2022-09-28T00:10:28.262Z,98009.09
2022-09-28T00:12:57.949Z,98020.72
2022-09-28T00:15:24.915Z,98023.50
2022-09-28T00:17:51.861Z,98029.69
2022-09-28T00:20:19.917Z,98038.50
2022-09-28T00:22:46.844Z,98035.16
2022-09-28T00:25:13.789Z,98032.53
2022-09-28T00:27:40.736Z,98018.53
2022-09-28T00:30:08.492Z,98014.22
2022-09-28T00:32:35.749Z,98021.66
2022-09-28T00:35:02.737Z,98021.00
2022-09-28T00:37:29.688Z,98012.38
2022-09-28T00:39:56.623Z,98020.25
2022-09-28T00:42:25.910Z,98005.44
2022-09-28T00:44:54.995Z,98007.97
2022-09-28T00:47:46.793Z,98012.28
2022-09-28T00:50:46.299Z,98000.13
2022-09-28T00:53:26.737Z,98000.94
2022-09-28T00:56:00.731Z,97996.69
2022-09-28T00:58:32.280Z,97997.53
2022-09-28T01:01:00.468Z,98006.22
2022-09-28T01:03:28.999Z,98001.94
2022-09-28T01:05:59.291Z,97997.53
2022-09-28T01:08:28.131Z,98014.75
2022-09-28T01:10:55.144Z,98005.09
2022-09-28T01:13:24.753Z,98007.84
2022-09-28T01:16:08.300Z,98012.50
2022-09-28T01:18:47.579Z,98010.03
2022-09-28T01:21:20.973Z,98029.00
2022-09-28T01:24:00.464Z,98018.47
2022-09-28T01:26:51.661Z,98011.94
2022-09-28T01:29:47.600Z,98013.84
2022-09-28T01:32:23.383Z,98019.25
2022-09-28T01:35:00.093Z,98012.69
2022-09-28T01:37:43.154Z,98008.72
2022-09-28T01:40:11.732Z,98005.53
2022-09-28T01:42:42.392Z,98008.84
2022-09-28T01:45:23.173Z,98009.63
2022-09-28T01:47:51.426Z,98012.78
2022-09-28T01:50:22.923Z,98017.88
2022-09-28T01:53:04.303Z,98022.00
2022-09-28T01:55:37.531Z,98019.38
2022-09-28T01:58:24.215Z,98025.34
2022-09-28T02:00:59.624Z,98029.72
2022-09-28T02:03:42.556Z,98036.59
2022-09-28T02:06:20.361Z,98034.00
2022-09-28T02:08:54.108Z,98033.97
2022-09-28T02:11:22.637Z,98036.56
2022-09-28T02:14:04.695Z,98027.00
2022-09-28T02:16:42.582Z,98024.38
2022-09-28T02:19:13.935Z,98024.38
2022-09-28T02:22:08.579Z,98024.22
2022-09-28T02:25:04.572Z,98033.97
2022-09-28T02:27:35.668Z,98040.03
2022-09-28T02:30:04.408Z,98046.94
2022-09-28T02:32:34.633Z,98043.59
2022-09-28T02:35:01.715Z,98049.59
2022-09-28T02:37:28.774Z,98053.13
2022-09-28T02:39:55.764Z,98048.13
2022-09-28T02:42:34.678Z,98052.56
2022-09-28T02:45:19.935Z,98053.47
2022-09-28T02:48:08.534Z,98049.16
2022-09-28T02:50:57.703Z,98050.06
2022-09-28T02:53:52.044Z,98049.09
2022-09-28T02:56:56.223Z,98042.31
2022-09-28T02:59:38.572Z,98061.34
2022-09-28T03:02:14.656Z,98066.50
2022-09-28T03:04:44.505Z,98053.63
2022-09-28T03:07:34.538Z,98066.56
2022-09-28T03:10:19.481Z,98066.38
2022-09-28T03:12:49.054Z,98078.50
2022-09-28T03:15:33.695Z,98089.59
2022-09-28T03:18:00.974Z,98095.75
2022-09-28T03:20:29.271Z,98100.28
2022-09-28T03:23:22.858Z,98106.25
2022-09-28T03:25:43.503Z,98111.41
2022-09-28T03:28:10.292Z,98111.47
2022-09-28T03:30:37.210Z,98111.41
2022-09-28T03:33:04.678Z,98111.47
2022-09-28T03:35:31.577Z,98107.91
2022-09-28T03:37:58.430Z,98106.06
2022-09-28T03:40:25.751Z,98116.41
2022-09-28T03:42:52.681Z,98116.53
2022-09-28T03:45:19.676Z,98107.81
2022-09-28T03:47:47.144Z,98120.81
2022-09-28T03:50:14.502Z,98118.19
2022-09-28T03:52:44.550Z,98128.56
2022-09-28T03:55:11.822Z,98127.69
2022-09-28T03:57:44.219Z,98125.94
2022-09-28T04:00:11.506Z,98126.81
2022-09-28T04:02:38.453Z,98119.84
2022-09-28T04:05:05.792Z,98123.28
2022-09-28T04:07:32.774Z,98107.84
2022-09-28T04:09:59.733Z,98112.78
2022-09-28T04:12:29.253Z,98119.09
2022-09-28T04:14:56.218Z,98125.81
2022-09-28T04:17:23.116Z,98128.41
2022-09-28T04:19:49.970Z,98129.38
2022-09-28T04:22:16.870Z,98127.72
2022-09-28T04:24:43.798Z,98123.25
2022-09-28T04:27:29.104Z,98117.09
2022-09-28T04:29:55.998Z,98130.13
2022-09-28T04:32:23.026Z,98131.78
2022-09-28T04:34:50.121Z,98142.19
2022-09-28T04:37:17.041Z,98149.09
2022-09-28T04:39:47.575Z,98136.75
2022-09-28T04:42:16.108Z,98124.47
2022-09-28T04:44:43.152Z,98122.66
2022-09-28T04:47:10.088Z,98125.22
2022-09-28T04:49:38.549Z,98122.50
2022-09-28T04:52:10.975Z,98115.47
2022-09-28T04:54:39.511Z,98114.69
2022-09-28T04:57:06.609Z,98127.84
2022-09-28T04:59:35.978Z,98126.94
2022-09-28T05:02:02.947Z,98138.09
2022-09-28T05:04:30.913Z,98139.69
2022-09-28T05:06:58.212Z,98133.56
2022-09-28T05:09:25.001Z,98142.22
2022-09-28T05:12:00.871Z,98140.50
2022-09-28T05:14:27.814Z,98145.63
2022-09-28T05:16:54.803Z,98157.69
2022-09-28T05:19:21.659Z,98158.53
2022-09-28T05:21:49.302Z,98168.94
2022-09-28T05:24:16.102Z,98168.03
2022-09-28T05:26:42.971Z,98174.97
2022-09-28T05:29:09.802Z,98167.91
2022-09-28T05:31:36.646Z,98171.13
2022-09-28T05:34:03.602Z,98158.88
2022-09-28T05:36:32.602Z,98172.81
2022-09-28T05:38:59.557Z,98168.34
2022-09-28T05:41:26.476Z,98174.28
2022-09-28T05:43:55.088Z,98172.41
2022-09-28T05:46:23.975Z,98175.19
2022-09-28T05:48:52.846Z,98169.22
2022-09-28T05:51:19.708Z,98174.44
2022-09-28T05:53:47.047Z,98169.06
2022-09-28T05:56:14.039Z,98161.47
2022-09-28T05:58:40.922Z,98160.44
2022-09-28T06:01:07.825Z,98166.00
2022-09-28T06:03:34.911Z,98178.84
2022-09-28T06:06:02.768Z,98188.31
2022-09-28T06:08:32.310Z,98183.84
2022-09-28T06:11:01.378Z,98183.81
2022-09-28T06:13:29.358Z,98187.41
2022-09-28T06:15:56.476Z,98171.75
2022-09-28T06:18:23.488Z,98172.66
2022-09-28T06:20:50.393Z,98176.97
2022-09-28T06:23:17.365Z,98177.03
2022-09-28T06:25:44.330Z,98176.97
2022-09-28T06:28:13.405Z,98170.81
2022-09-28T06:30:41.632Z,98164.66
2022-09-28T06:33:12.722Z,98156.97
2022-09-28T06:35:40.863Z,98154.72
2022-09-28T06:38:08.558Z,98145.19
2022-09-28T06:40:36.473Z,98156.09
2022-09-28T06:43:10.693Z,98166.38
2022-09-28T06:45:38.785Z,98180.16
2022-09-28T06:48:06.703Z,98188.41
2022-09-28T06:50:39.714Z,98195.19
2022-09-28T06:53:09.613Z,98186.44
2022-09-28T06:55:39.893Z,98190.63
2022-09-28T06:58:10.787Z,98189.44
2022-09-28T07:00:41.682Z,98181.00
2022-09-28T07:03:12.894Z,98181.50
2022-09-28T07:05:46.311Z,98177.59
2022-09-28T07:08:13.644Z,98169.16
2022-09-28T07:10:45.704Z,98177.00
2022-09-28T07:13:36.145Z,98178.13
2022-09-28T07:16:01.909Z,98194.22
2022-09-28T07:18:30.069Z,98194.47
2022-09-28T07:20:57.609Z,98197.47
2022-09-28T07:23:28.734Z,98198.03
2022-09-28T07:25:55.745Z,98197.16
2022-09-28T07:28:22.643Z,98206.34
2022-09-28T07:30:50.126Z,98209.38
2022-09-28T07:33:17.797Z,98207.66
2022-09-28T07:35:55.557Z,98199.56
2022-09-28T07:38:23.027Z,98209.28
2022-09-28T07:41:08.749Z,98202.78
2022-09-28T07:43:35.772Z,98200.81
2022-09-28T07:46:02.712Z,98189.13
2022-09-28T07:48:38.051Z,98190.78
2022-09-28T07:51:05.373Z,98186.63
2022-09-28T07:53:32.259Z,98198.47
2022-09-28T07:56:10.163Z,98202.31
2022-09-28T07:58:38.665Z,98212.50
2022-09-28T08:01:10.984Z,98194.00
2022-09-28T08:03:38.442Z,98187.75
2022-09-28T08:06:09.941Z,98197.09
2022-09-28T08:08:37.210Z,98200.25
2022-09-28T08:11:07.014Z,98202.59
2022-09-28T08:13:33.891Z,98188.16
2022-09-28T08:16:02.132Z,98198.63
2022-09-28T08:18:29.344Z,98197.72
2022-09-28T08:21:14.765Z,98189.38
2022-09-28T08:23:41.692Z,98202.09
2022-09-28T08:26:13.310Z,98199.31
2022-09-28T08:28:43.599Z,98198.38
2022-09-28T08:31:10.633Z,98197.25
2022-09-28T08:33:38.779Z,98195.88
2022-09-28T08:36:06.291Z,98194.03
2022-09-28T08:38:33.555Z,98202.88
2022-09-28T08:41:18.623Z,98208.19
2022-09-28T08:44:00.734Z,98217.56
2022-09-28T08:46:37.258Z,98217.66
2022-09-28T08:49:24.061Z,98218.88
2022-09-28T08:51:58.307Z,98202.09
2022-09-28T08:54:34.178Z,98203.28
2022-09-28T08:57:12.807Z,98206.22
2022-09-28T08:59:51.555Z,98187.69
2022-09-28T09:02:42.883Z,98184.81
2022-09-28T09:05:17.235Z,98179.66
2022-09-28T09:08:02.714Z,98187.97
2022-09-28T09:10:46.074Z,98183.69
2022-09-28T09:13:33.906Z,98181.59
2022-09-28T09:16:30.535Z,98183.81
2022-09-28T09:19:09.219Z,98170.84
2022-09-28T09:22:05.457Z,98176.25
2022-09-28T09:24:39.010Z,98179.97
2022-09-28T09:27:14.597Z,98185.09
2022-09-28T09:29:56.756Z,98182.56
2022-09-28T09:32:59.886Z,98190.34
2022-09-28T09:35:56.599Z,98192.03
2022-09-28T09:38:44.684Z,98190.13
2022-09-28T09:41:44.383Z,98195.78
2022-09-28T09:44:16.910Z,98192.19
2022-09-28T09:47:08.017Z,98186.00
2022-09-28T09:49:37.841Z,98188.66
2022-09-28T09:55:14.592Z,98189.22
2022-09-28T09:57:47.383Z,98179.72
2022-09-28T10:00:15.886Z,98179.25
2022-09-28T10:02:45.766Z,98182.56
2022-09-28T10:05:12.701Z,98182.81
2022-09-28T10:08:03.234Z,98180.69
2022-09-28T10:10:38.082Z,98178.19
2022-09-28T10:13:05.570Z,98172.91
2022-09-28T10:15:36.332Z,98182.53
2022-09-28T10:18:13.588Z,98175.59
2022-09-28T10:20:42.912Z,98167.25
2022-09-28T10:23:22.886Z,98168.19
2022-09-28T10:25:54.383Z,98160.09
2022-09-28T10:28:53.514Z,98169.78
2022-09-28T10:31:40.489Z,98153.91
2022-09-28T10:34:10.883Z,98148.97
2022-09-28T10:36:52.090Z,98128.34
2022-09-28T10:39:46.162Z,98130.75
2022-09-28T10:42:18.390Z,98130.47
2022-09-28T10:45:03.198Z,98126.06
2022-09-28T10:47:32.814Z,98131.56
2022-09-28T10:50:01.057Z,98125.97
2022-09-28T10:52:32.547Z,98126.97
2022-09-28T10:54:59.655Z,98123.94
2022-09-28T10:57:37.018Z,98125.88
2022-09-28T11:00:27.363Z,98113.25
2022-09-28T11:02:54.396Z,98115.03
2022-09-28T11:05:27.958Z,98100.75
2022-09-28T11:07:57.180Z,98071.41
2022-09-28T11:10:26.805Z,98073.63
2022-09-28T11:12:54.615Z,98085.94
2022-09-28T11:15:33.919Z,98090.47
2022-09-28T11:18:31.716Z,98098.56
2022-09-28T11:21:12.233Z,98100.13
2022-09-28T11:23:41.632Z,98097.41
2022-09-28T11:26:09.649Z,98078.50
2022-09-28T11:28:38.392Z,98063.41
2022-09-28T11:31:08.125Z,98053.19
2022-09-28T11:33:46.190Z,98060.19
2022-09-28T11:36:18.380Z,98056.13
2022-09-28T11:39:11.430Z,98049.53
2022-09-28T11:41:53.064Z,98043.66
2022-09-28T11:44:44.955Z,98045.38
2022-09-28T11:47:36.131Z,98048.22
2022-09-28T11:50:24.807Z,98039.94
2022-09-28T11:53:04.159Z,98033.19
2022-09-28T11:56:00.355Z,98039.88
2022-09-28T11:58:33.275Z,98031.81
2022-09-28T12:01:22.652Z,98026.75
2022-09-28T12:04:00.962Z,98022.44
2022-09-28T12:06:37.657Z,98021.47
2022-09-28T12:09:22.511Z,98012.41
2022-09-28T12:11:56.012Z,98013.91
2022-09-28T12:14:38.771Z,98009.25
2022-09-28T12:17:23.856Z,98004.00
2022-09-28T12:20:13.834Z,98011.28
2022-09-28T12:23:08.131Z,97994.16
2022-09-28T12:25:46.472Z,97997.50
2022-09-28T12:28:23.612Z,98002.84
2022-09-28T12:30:51.606Z,97994.16
2022-09-28T12:33:18.670Z,97997.00
2022-09-28T12:35:57.202Z,98003.66
2022-09-28T12:38:54.114Z,97982.97
2022-09-28T12:41:58.510Z,97984.69
2022-09-28T12:44:52.892Z,97985.03
2022-09-28T12:47:46.382Z,97989.72
2022-09-28T12:50:41.095Z,97984.72
2022-09-28T12:53:21.756Z,97983.44
2022-09-28T12:56:03.433Z,97977.31
2022-09-28T12:58:36.871Z,97982.75
2022-09-28T13:01:31.252Z,97986.25
2022-09-28T13:04:22.924Z,97981.81
2022-09-28T13:07:13.938Z,97986.06
2022-09-28T13:10:01.543Z,97986.72
2022-09-28T13:12:39.360Z,97984.84
2022-09-28T13:15:17.789Z,97984.63
2022-09-28T13:17:56.583Z,97980.69
2022-09-28T13:20:52.150Z,97987.25
2022-09-28T13:23:23.873Z,97983.34
2022-09-28T13:25:57.230Z,97979.75
2022-09-28T13:28:27.341Z,97984.19
2022-09-28T13:31:00.389Z,97989.94
2022-09-28T13:33:36.190Z,97986.59
2022-09-28T13:36:24.034Z,97990.19
2022-09-28T13:38:52.493Z,97973.13
2022-09-28T13:41:40.680Z,97980.34
2022-09-28T13:44:10.232Z,97983.03
2022-09-28T13:47:01.065Z,97979.47
2022-09-28T13:50:06.111Z,97981.97
2022-09-28T13:52:44.442Z,97974.19
2022-09-28T13:55:23.805Z,97972.44
2022-09-28T13:57:50.580Z,97983.28
2022-09-28T14:00:33.582Z,97976.47
2022-09-28T14:03:06.371Z,97977.63
2022-09-28T14:06:11.142Z,97975.06
2022-09-28T14:09:13.221Z,97961.19
2022-09-28T14:11:42.592Z,97974.44
2022-09-28T14:14:14.001Z,97986.72
2022-09-28T14:16:42.532Z,97975.88
2022-09-28T14:19:22.509Z,97982.44
2022-09-28T14:22:04.421Z,97975.78
2022-09-28T14:24:46.575Z,97973.91
2022-09-28T14:27:32.660Z,97972.13
2022-09-28T14:30:07.235Z,97972.13
2022-09-28T14:32:37.164Z,97969.84
2022-09-28T14:35:18.723Z,97967.78
2022-09-28T14:38:07.863Z,97960.75
2022-09-28T14:41:11.693Z,97955.38
2022-09-28T14:43:44.552Z,97949.97
2022-09-28T14:46:17.532Z,97951.88
2022-09-28T14:48:48.531Z,97945.06
2022-09-28T14:51:27.632Z,97951.34
2022-09-28T14:54:00.460Z,97955.44
2022-09-28T14:56:32.848Z,97951.28
2022-09-28T14:59:00.783Z,97955.91
2022-09-28T15:01:30.877Z,97958.06
2022-09-28T15:04:04.796Z,97954.56
2022-09-28T15:06:46.443Z,97961.25
2022-09-28T15:09:34.680Z,97966.00
2022-09-28T15:12:29.845Z,97965.19
2022-09-28T15:14:59.597Z,97969.00
2022-09-28T15:17:39.745Z,97964.69
2022-09-28T15:20:17.315Z,97972.06
2022-09-28T15:22:50.172Z,97967.31
2022-09-28T15:25:20.229Z,97972.38
2022-09-28T15:28:04.806Z,97970.44
2022-09-28T15:30:33.581Z,97967.88
2022-09-28T15:33:21.101Z,97966.84
2022-09-28T15:36:02.210Z,97969.47
2022-09-28T15:38:31.616Z,97972.53
2022-09-28T15:40:58.852Z,97979.59
2022-09-28T15:43:29.457Z,97971.31
2022-09-28T15:46:07.094Z,97970.38
2022-09-28T15:48:51.412Z,97969.41
2022-09-28T15:51:23.360Z,97969.59
2022-09-28T15:54:11.142Z,97971.69
2022-09-28T15:56:59.934Z,97970.72
2022-09-28T15:59:35.806Z,97964.28
2022-09-28T16:02:10.812Z,97972.09
2022-09-28T16:04:55.375Z,97962.38
2022-09-28T16:07:41.842Z,97957.91
2022-09-28T16:10:11.530Z,97944.03
2022-09-28T16:12:38.290Z,97957.00
2022-09-28T16:15:18.427Z,97955.47
2022-09-28T16:17:51.279Z,97953.94
2022-09-28T16:20:23.361Z,97958.38
2022-09-28T16:22:50.988Z,97960.41
2022-09-28T16:25:24.869Z,97963.22
2022-09-28T16:27:55.769Z,97961.34
2022-09-28T16:30:32.602Z,97961.44
2022-09-28T16:33:03.858Z,97972.03
2022-09-28T16:35:53.970Z,97969.53
2022-09-28T16:38:21.251Z,97973.16
2022-09-28T16:40:50.755Z,97974.13
2022-09-28T16:43:28.939Z,97976.94
2022-09-28T16:46:00.844Z,97975.41
2022-09-28T16:48:30.554Z,97970.56
2022-09-28T16:50:58.084Z,97968.88
2022-09-28T16:53:44.064Z,97978.56
2022-09-28T16:56:12.586Z,97966.63
2022-09-28T16:58:39.518Z,97974.88
2022-09-28T17:01:09.943Z,97983.00
2022-09-28T17:03:37.075Z,97980.66
2022-09-28T17:06:06.414Z,97982.19
2022-09-28T17:08:35.738Z,97982.50
2022-09-28T17:11:14.913Z,97973.72
2022-09-28T17:13:46.061Z,97971.22
2022-09-28T17:16:58.188Z,97974.72
2022-09-28T17:19:25.102Z,97977.50
2022-09-28T17:21:53.185Z,97975.00
2022-09-28T17:24:20.697Z,97977.53
2022-09-28T17:26:50.131Z,97977.63
2022-09-28T17:29:17.010Z,97984.69
2022-09-28T17:31:45.237Z,97983.25
2022-09-28T17:34:16.397Z,97979.81
2022-09-28T17:36:44.865Z,97976.34
2022-09-28T17:39:17.124Z,97981.06
2022-09-28T17:41:44.400Z,97971.34
2022-09-28T17:44:15.211Z,97972.47
2022-09-28T17:46:49.832Z,97969.88
2022-09-28T17:49:17.166Z,97975.97
2022-09-28T17:51:44.132Z,97974.97
2022-09-28T17:54:11.254Z,97980.19
2022-09-28T17:56:38.093Z,97982.94
2022-09-28T17:59:07.917Z,97985.56
2022-09-28T18:01:38.379Z,97987.28
2022-09-28T18:04:08.353Z,97986.47
2022-09-28T18:06:37.320Z,97989.06
2022-09-28T18:09:05.341Z,97988.22
2022-09-28T18:11:33.570Z,98005.03
2022-09-28T18:14:01.425Z,97995.63
2022-09-28T18:16:29.216Z,97996.56
2022-09-28T18:18:56.430Z,98006.47
2022-09-28T18:21:23.392Z,98008.97
2022-09-28T18:23:50.430Z,98003.53
2022-09-28T18:26:19.722Z,98006.63
2022-09-28T18:28:47.005Z,98008.16
2022-09-28T18:31:16.054Z,98007.25
2022-09-28T18:33:43.589Z,98007.22
2022-09-28T18:36:10.864Z,98010.44
2022-09-28T18:38:38.747Z,98026.06
2022-09-28T18:41:16.095Z,98016.44
2022-09-28T18:43:50.461Z,98007.25
2022-09-28T18:46:18.671Z,98012.56
2022-09-28T18:48:47.937Z,98017.72
2022-09-28T18:51:14.870Z,98010.69
2022-09-28T18:53:42.040Z,98017.25
2022-09-28T18:56:13.155Z,98019.16
2022-09-28T18:58:41.861Z,98025.13
2022-09-28T19:01:31.398Z,98023.47
2022-09-28T19:04:00.623Z,98018.16
2022-09-28T19:06:27.911Z,98014.50
2022-09-28T19:08:56.340Z,98021.16
2022-09-28T19:11:24.336Z,98017.47
2022-09-28T19:13:53.740Z,98026.53
2022-09-28T19:16:28.878Z,98030.13
2022-09-28T19:18:57.178Z,98020.81
2022-09-28T19:21:24.671Z,98022.75
2022-09-28T19:23:54.058Z,98011.91
2022-09-28T19:26:27.098Z,98017.84
2022-09-28T19:28:56.423Z,98017.75
2022-09-28T19:31:23.823Z,98011.66
2022-09-28T19:33:50.934Z,98023.06
2022-09-28T19:36:22.078Z,98025.72
2022-09-28T19:38:49.305Z,98024.78
2022-09-28T19:41:49.649Z,98014.22
2022-09-28T19:44:25.841Z,98014.22
2022-09-28T19:46:57.895Z,98015.25
2022-09-28T19:49:26.882Z,98011.97
2022-09-28T19:52:14.950Z,98012.16
2022-09-28T19:55:00.416Z,98012.03
2022-09-28T19:57:32.934Z,98022.34
2022-09-28T20:00:03.301Z,98020.53
2022-09-28T20:02:31.032Z,98011.94
2022-09-28T20:04:58.230Z,98021.47
2022-09-28T20:07:25.070Z,98021.44
2022-09-28T20:09:51.925Z,98019.78
2022-09-28T20:12:19.161Z,98024.19
2022-09-28T20:14:46.302Z,98020.91
2022-09-28T20:17:13.281Z,98025.19
2022-09-28T20:19:40.402Z,98021.84
2022-09-28T20:22:07.570Z,98027.97
2022-09-28T20:24:34.801Z,98027.34
2022-09-28T20:27:01.850Z,98021.44
2022-09-28T20:29:31.923Z,98031.78
2022-09-28T20:31:59.106Z,98029.19
2022-09-28T20:34:26.191Z,98030.13
2022-09-28T20:36:53.312Z,98020.69
2022-09-28T20:39:20.316Z,98025.75
2022-09-28T20:41:49.296Z,98025.66
2022-09-28T20:44:16.681Z,98024.75
2022-09-28T20:46:44.328Z,98019.38
2022-09-28T20:49:11.642Z,98019.19
2022-09-28T20:51:38.412Z,98027.63
2022-09-28T20:54:05.500Z,98029.34
2022-09-28T20:56:38.046Z,98029.34
2022-09-28T20:59:10.520Z,98041.28
2022-09-28T21:01:38.307Z,98032.53
2022-09-28T21:04:07.149Z,98036.81
2022-09-28T21:06:36.244Z,98020.34
2022-09-28T21:09:05.156Z,98025.56
2022-09-28T21:11:33.207Z,98027.03
2022-09-28T21:14:02.398Z,98023.50
2022-09-28T21:16:32.666Z,98032.97
2022-09-28T21:18:59.782Z,98029.44
2022-09-28T21:21:26.732Z,98032.78
2022-09-28T21:23:57.723Z,98028.63
2022-09-28T21:26:27.400Z,98021.81
2022-09-28T21:28:55.701Z,98021.25
2022-09-28T21:31:28.845Z,98017.88
2022-09-28T21:33:57.155Z,98022.34
2022-09-28T21:36:24.923Z,98020.78
2022-09-28T21:38:52.198Z,98021.91
2022-09-28T21:41:19.130Z,98025.03
2022-09-28T21:43:46.097Z,98018.63
2022-09-28T21:46:13.826Z,98006.63
2022-09-28T21:48:41.111Z,98011.81
2022-09-28T21:51:10.359Z,98008.41
2022-09-28T21:53:38.561Z,98018.06
2022-09-28T21:56:07.827Z,98004.25
2022-09-28T21:58:36.118Z,98009.25
2022-09-28T22:01:07.145Z,98010.97
2022-09-28T22:03:36.176Z,97996.06
2022-09-28T22:06:06.570Z,97996.06
2022-09-28T22:08:37.803Z,97991.66
2022-09-28T22:11:09.951Z,98002.00
2022-09-28T22:13:41.151Z,97989.06
2022-09-28T22:16:08.920Z,97995.06
2022-09-28T22:18:36.032Z,97996.72
2022-09-28T22:21:10.034Z,98009.72
2022-09-28T22:23:38.044Z,98001.91
2022-09-28T22:26:19.254Z,98011.47
2022-09-28T22:28:48.355Z,98006.34
2022-09-28T22:31:16.672Z,97998.75
2022-09-28T22:33:44.095Z,98010.97
2022-09-28T22:36:11.413Z,98001.69
2022-09-28T22:38:38.390Z,98008.94
2022-09-28T22:41:05.358Z,98009.00
2022-09-28T22:43:32.321Z,98003.72
2022-09-28T22:46:11.331Z,98000.28
2022-09-28T22:48:38.614Z,98004.94
2022-09-28T22:51:06.930Z,98020.94
2022-09-28T22:53:35.084Z,98011.91
2022-09-28T22:56:05.481Z,98017.94
2022-09-28T22:58:33.697Z,98010.84
2022-09-28T23:01:18.951Z,98025.13
2022-09-28T23:03:46.204Z,98019.63
2022-09-28T23:06:16.715Z,98006.34
2022-09-28T23:08:48.634Z,98015.84
2022-09-28T23:11:16.027Z,98018.69
2022-09-28T23:13:46.304Z,98020.13
2022-09-28T23:16:15.004Z,98008.69
2022-09-28T23:18:42.260Z,98008.69
2022-09-28T23:21:15.561Z,98019.00
2022-09-28T23:23:46.894Z,98012.88
2022-09-28T23:26:19.473Z,98012.94
2022-09-28T23:28:47.541Z,98018.91
2022-09-28T23:31:18.005Z,98013.25
2022-09-28T23:33:45.322Z,98021.03
2022-09-28T23:36:12.331Z,98021.69
2022-09-28T23:38:39.992Z,98022.75
2022-09-28T23:41:07.479Z,98026.09
2022-09-28T23:43:34.708Z,98024.22
2022-09-28T23:46:02.051Z,98026.75
2022-09-28T23:48:29.103Z,98021.81
2022-09-28T23:50:56.042Z,98013.16
2022-09-28T23:53:23.005Z,98027.59
2022-09-28T23:55:49.820Z,98031.16
2022-09-28T23:58:19.178Z,98015.75
